sensor_id;sensor_type;location;lat;lon;timestamp;P1;durP1;ratioP1;P2;durP2;ratioP2
26106;SDS011;13866;50.748;12.630;2022-12-18T00:01:32;9.57;;;9.03;;
26106;SDS011;13866;50.748;12.630;2022-12-18T00:04:00;9.00;;;8.48;;
26106;SDS011;13866;50.748;12.630;2022-12-18T00:06:28;11.45;;;10.40;;
26106;SDS011;13866;50.748;12.630;2022-12-18T00:08:55;9.63;;;9.10;;
26106;SDS011;13866;50.748;12.630;2022-12-18T00:11:23;11.95;;;10.95;;
26106;SDS011;13866;50.748;12.630;2022-12-18T00:13:50;11.48;;;10.55;;
26106;SDS011;13866;50.748;12.630;2022-12-18T00:16:18;10.90;;;9.77;;
26106;SDS011;13866;50.748;12.630;2022-12-18T00:18:46;10.75;;;10.02;;
26106;SDS011;13866;50.748;12.630;2022-12-18T00:21:12;9.82;;;9.13;;
26106;SDS011;13866;50.748;12.630;2022-12-18T00:23:39;10.50;;;9.70;;
26106;SDS011;13866;50.748;12.630;2022-12-18T00:26:07;10.45;;;9.68;;
26106;SDS011;13866;50.748;12.630;2022-12-18T00:28:35;12.32;;;10.35;;
26106;SDS011;13866;50.748;12.630;2022-12-18T00:31:05;10.30;;;9.37;;
26106;SDS011;13866;50.748;12.630;2022-12-18T00:33:33;11.20;;;10.40;;
26106;SDS011;13866;50.748;12.630;2022-12-18T00:38:28;9.75;;;9.25;;
26106;SDS011;13866;50.748;12.630;2022-12-18T00:40:53;10.00;;;9.37;;
26106;SDS011;13866;50.748;12.630;2022-12-18T00:43:19;10.40;;;9.90;;
26106;SDS011;13866;50.748;12.630;2022-12-18T00:45:45;10.53;;;9.83;;
26106;SDS011;13866;50.748;12.630;2022-12-18T00:48:10;9.70;;;9.20;;
26106;SDS011;13866;50.748;12.630;2022-12-18T00:50:36;11.30;;;10.40;;
26106;SDS011;13866;50.748;12.630;2022-12-18T00:53:01;11.13;;;10.10;;
26106;SDS011;13866;50.748;12.630;2022-12-18T00:55:27;10.67;;;9.63;;
26106;SDS011;13866;50.748;12.630;2022-12-18T00:57:53;15.20;;;10.40;;
26106;SDS011;13866;50.748;12.630;2022-12-18T01:00:18;12.00;;;10.70;;
26106;SDS011;13866;50.748;12.630;2022-12-18T01:02:44;11.03;;;8.70;;
26106;SDS011;13866;50.748;12.630;2022-12-18T01:05:10;9.63;;;9.20;;
26106;SDS011;13866;50.748;12.630;2022-12-18T01:07:37;9.90;;;9.23;;
26106;SDS011;13866;50.748;12.630;2022-12-18T01:10:03;9.10;;;8.48;;
26106;SDS011;13866;50.748;12.630;2022-12-18T01:12:29;9.05;;;8.55;;
26106;SDS011;13866;50.748;12.630;2022-12-18T01:14:55;7.93;;;7.37;;
26106;SDS011;13866;50.748;12.630;2022-12-18T01:17:21;8.87;;;8.33;;
26106;SDS011;13866;50.748;12.630;2022-12-18T01:19:46;11.98;;;8.85;;
26106;SDS011;13866;50.748;12.630;2022-12-18T01:22:12;9.20;;;8.60;;
26106;SDS011;13866;50.748;12.630;2022-12-18T01:24:37;9.13;;;8.43;;
26106;SDS011;13866;50.748;12.630;2022-12-18T01:27:03;7.70;;;7.33;;
26106;SDS011;13866;50.748;12.630;2022-12-18T01:29:28;13.70;;;9.00;;
26106;SDS011;13866;50.748;12.630;2022-12-18T01:31:54;9.80;;;9.00;;
26106;SDS011;13866;50.748;12.630;2022-12-18T01:34:21;7.63;;;7.30;;
26106;SDS011;13866;50.748;12.630;2022-12-18T01:36:47;9.07;;;8.35;;
26106;SDS011;13866;50.748;12.630;2022-12-18T01:39:13;8.17;;;7.80;;
26106;SDS011;13866;50.748;12.630;2022-12-18T01:41:39;7.85;;;7.40;;
26106;SDS011;13866;50.748;12.630;2022-12-18T01:47:13;7.35;;;6.82;;
26106;SDS011;13866;50.748;12.630;2022-12-18T01:49:43;10.50;;;9.50;;
26106;SDS011;13866;50.748;12.630;2022-12-18T01:52:08;8.57;;;8.07;;
26106;SDS011;13866;50.748;12.630;2022-12-18T01:54:34;13.53;;;8.23;;
26106;SDS011;13866;50.748;12.630;2022-12-18T01:56:59;9.17;;;8.47;;
26106;SDS011;13866;50.748;12.630;2022-12-18T01:59:26;8.98;;;8.10;;
26106;SDS011;13866;50.748;12.630;2022-12-18T02:01:52;8.80;;;8.35;;
26106;SDS011;13866;50.748;12.630;2022-12-18T02:06:43;6.90;;;6.60;;
26106;SDS011;13866;50.748;12.630;2022-12-18T02:09:18;6.97;;;6.78;;
26106;SDS011;13866;50.748;12.630;2022-12-18T02:17:21;6.95;;;6.65;;
26106;SDS011;13866;50.748;12.630;2022-12-18T02:20:12;8.00;;;7.10;;
26106;SDS011;13866;50.748;12.630;2022-12-18T02:27:52;6.20;;;6.00;;
26106;SDS011;13866;50.748;12.630;2022-12-18T02:30:21;6.18;;;6.07;;
26106;SDS011;13866;50.748;12.630;2022-12-18T02:32:49;7.25;;;7.05;;
26106;SDS011;13866;50.748;12.630;2022-12-18T02:35:19;7.18;;;6.88;;
26106;SDS011;13866;50.748;12.630;2022-12-18T02:37:48;8.40;;;7.75;;
26106;SDS011;13866;50.748;12.630;2022-12-18T02:40:15;9.02;;;8.48;;
26106;SDS011;13866;50.748;12.630;2022-12-18T02:42:43;7.20;;;6.80;;
26106;SDS011;13866;50.748;12.630;2022-12-18T02:45:08;7.07;;;6.67;;
26106;SDS011;13866;50.748;12.630;2022-12-18T02:47:37;8.20;;;7.75;;
26106;SDS011;13866;50.748;12.630;2022-12-18T02:58:40;6.90;;;6.65;;
26106;SDS011;13866;50.748;12.630;2022-12-18T03:01:09;8.23;;;7.43;;
26106;SDS011;13866;50.748;12.630;2022-12-18T03:03:52;7.10;;;6.90;;
26106;SDS011;13866;50.748;12.630;2022-12-18T03:08:51;6.60;;;6.30;;
26106;SDS011;13866;50.748;12.630;2022-12-18T03:11:23;8.07;;;7.43;;
26106;SDS011;13866;50.748;12.630;2022-12-18T03:14:09;8.50;;;7.75;;
26106;SDS011;13866;50.748;12.630;2022-12-18T03:16:38;7.10;;;6.38;;
26106;SDS011;13866;50.748;12.630;2022-12-18T03:19:11;8.63;;;6.53;;
26106;SDS011;13866;50.748;12.630;2022-12-18T03:21:51;5.78;;;5.47;;
26106;SDS011;13866;50.748;12.630;2022-12-18T03:24:20;5.72;;;5.32;;
26106;SDS011;13866;50.748;12.630;2022-12-18T03:26:49;5.90;;;5.70;;
26106;SDS011;13866;50.748;12.630;2022-12-18T03:29:21;6.10;;;6.00;;
26106;SDS011;13866;50.748;12.630;2022-12-18T03:31:51;5.82;;;5.30;;
26106;SDS011;13866;50.748;12.630;2022-12-18T03:34:25;5.95;;;5.78;;
26106;SDS011;13866;50.748;12.630;2022-12-18T03:36:54;6.07;;;5.80;;
26106;SDS011;13866;50.748;12.630;2022-12-18T03:39:20;5.80;;;5.70;;
26106;SDS011;13866;50.748;12.630;2022-12-18T03:41:56;5.93;;;5.73;;
26106;SDS011;13866;50.748;12.630;2022-12-18T03:50:25;5.63;;;5.53;;
26106;SDS011;13866;50.748;12.630;2022-12-18T03:53:18;6.70;;;6.28;;
26106;SDS011;13866;50.748;12.630;2022-12-18T03:55:48;5.78;;;5.40;;
26106;SDS011;13866;50.748;12.630;2022-12-18T03:58:15;5.15;;;4.95;;
26106;SDS011;13866;50.748;12.630;2022-12-18T04:00:44;6.35;;;6.05;;
26106;SDS011;13866;50.748;12.630;2022-12-18T04:03:12;4.82;;;4.82;;
26106;SDS011;13866;50.748;12.630;2022-12-18T04:05:39;6.30;;;6.00;;
26106;SDS011;13866;50.748;12.630;2022-12-18T04:08:07;5.30;;;5.20;;
26106;SDS011;13866;50.748;12.630;2022-12-18T04:10:32;5.67;;;5.47;;
26106;SDS011;13866;50.748;12.630;2022-12-18T04:12:58;5.67;;;5.47;;
26106;SDS011;13866;50.748;12.630;2022-12-18T04:15:24;6.28;;;6.05;;
26106;SDS011;13866;50.748;12.630;2022-12-18T04:17:49;5.73;;;5.30;;
26106;SDS011;13866;50.748;12.630;2022-12-18T04:20:15;4.30;;;4.30;;
26106;SDS011;13866;50.748;12.630;2022-12-18T04:22:41;4.47;;;4.37;;
26106;SDS011;13866;50.748;12.630;2022-12-18T04:25:07;4.70;;;4.60;;
26106;SDS011;13866;50.748;12.630;2022-12-18T04:27:33;8.50;;;4.70;;
26106;SDS011;13866;50.748;12.630;2022-12-18T04:29:58;4.00;;;4.00;;
26106;SDS011;13866;50.748;12.630;2022-12-18T04:32:24;4.10;;;4.10;;
26106;SDS011;13866;50.748;12.630;2022-12-18T04:34:49;4.77;;;4.67;;
26106;SDS011;13866;50.748;12.630;2022-12-18T04:37:15;4.63;;;4.63;;
26106;SDS011;13866;50.748;12.630;2022-12-18T04:39:40;5.43;;;5.33;;
26106;SDS011;13866;50.748;12.630;2022-12-18T04:42:06;4.10;;;4.10;;
26106;SDS011;13866;50.748;12.630;2022-12-18T04:44:31;4.10;;;4.00;;
26106;SDS011;13866;50.748;12.630;2022-12-18T04:46:57;4.87;;;4.50;;
26106;SDS011;13866;50.748;12.630;2022-12-18T04:49:22;4.83;;;4.80;;
26106;SDS011;13866;50.748;12.630;2022-12-18T04:51:48;4.37;;;4.37;;
26106;SDS011;13866;50.748;12.630;2022-12-18T04:54:13;4.47;;;4.37;;
26106;SDS011;13866;50.748;12.630;2022-12-18T04:56:39;4.67;;;4.57;;
26106;SDS011;13866;50.748;12.630;2022-12-18T04:59:04;4.40;;;4.40;;
26106;SDS011;13866;50.748;12.630;2022-12-18T05:01:30;4.10;;;4.10;;
26106;SDS011;13866;50.748;12.630;2022-12-18T05:03:55;4.83;;;4.50;;
26106;SDS011;13866;50.748;12.630;2022-12-18T05:06:21;4.23;;;4.23;;
26106;SDS011;13866;50.748;12.630;2022-12-18T05:08:46;4.20;;;4.20;;
26106;SDS011;13866;50.748;12.630;2022-12-18T05:11:13;4.30;;;4.30;;
26106;SDS011;13866;50.748;12.630;2022-12-18T05:13:40;4.20;;;4.00;;
26106;SDS011;13866;50.748;12.630;2022-12-18T05:16:07;4.72;;;4.63;;
26106;SDS011;13866;50.748;12.630;2022-12-18T05:18:33;4.30;;;4.20;;
26106;SDS011;13866;50.748;12.630;2022-12-18T05:20:59;4.78;;;4.78;;
26106;SDS011;13866;50.748;12.630;2022-12-18T05:23:25;4.15;;;4.15;;
26106;SDS011;13866;50.748;12.630;2022-12-18T05:25:55;3.87;;;3.87;;
26106;SDS011;13866;50.748;12.630;2022-12-18T05:28:22;5.65;;;3.95;;
26106;SDS011;13866;50.748;12.630;2022-12-18T05:30:49;4.93;;;4.93;;
26106;SDS011;13866;50.748;12.630;2022-12-18T05:33:19;4.85;;;4.55;;
26106;SDS011;13866;50.748;12.630;2022-12-18T05:35:53;4.30;;;4.30;;
26106;SDS011;13866;50.748;12.630;2022-12-18T05:38:19;3.92;;;3.92;;
26106;SDS011;13866;50.748;12.630;2022-12-18T05:40:47;4.30;;;4.30;;
26106;SDS011;13866;50.748;12.630;2022-12-18T05:43:16;4.93;;;4.70;;
26106;SDS011;13866;50.748;12.630;2022-12-18T05:45:42;5.45;;;5.45;;
26106;SDS011;13866;50.748;12.630;2022-12-18T05:48:08;4.53;;;4.40;;
26106;SDS011;13866;50.748;12.630;2022-12-18T05:50:38;4.60;;;4.60;;
26106;SDS011;13866;50.748;12.630;2022-12-18T05:53:05;4.03;;;4.03;;
26106;SDS011;13866;50.748;12.630;2022-12-18T05:55:35;4.30;;;4.20;;
26106;SDS011;13866;50.748;12.630;2022-12-18T05:58:01;3.90;;;3.90;;
26106;SDS011;13866;50.748;12.630;2022-12-18T06:00:29;4.60;;;4.40;;
26106;SDS011;13866;50.748;12.630;2022-12-18T06:02:54;4.30;;;4.30;;
26106;SDS011;13866;50.748;12.630;2022-12-18T06:05:20;3.80;;;3.70;;
26106;SDS011;13866;50.748;12.630;2022-12-18T06:07:46;4.07;;;4.07;;
26106;SDS011;13866;50.748;12.630;2022-12-18T06:10:11;4.60;;;4.60;;
26106;SDS011;13866;50.748;12.630;2022-12-18T06:12:37;4.00;;;4.00;;
26106;SDS011;13866;50.748;12.630;2022-12-18T06:15:03;4.57;;;4.53;;
26106;SDS011;13866;50.748;12.630;2022-12-18T06:17:29;4.65;;;4.65;;
26106;SDS011;13866;50.748;12.630;2022-12-18T06:19:55;4.15;;;4.15;;
26106;SDS011;13866;50.748;12.630;2022-12-18T06:22:21;4.57;;;4.47;;
26106;SDS011;13866;50.748;12.630;2022-12-18T06:24:47;6.40;;;6.20;;
26106;SDS011;13866;50.748;12.630;2022-12-18T06:27:12;6.10;;;6.00;;
26106;SDS011;13866;50.748;12.630;2022-12-18T06:29:38;6.67;;;6.23;;
26106;SDS011;13866;50.748;12.630;2022-12-18T06:32:04;4.87;;;4.87;;
26106;SDS011;13866;50.748;12.630;2022-12-18T06:34:29;5.33;;;5.07;;
26106;SDS011;13866;50.748;12.630;2022-12-18T06:36:55;6.10;;;5.80;;
26106;SDS011;13866;50.748;12.630;2022-12-18T06:39:20;5.87;;;5.73;;
26106;SDS011;13866;50.748;12.630;2022-12-18T06:41:46;6.03;;;5.83;;
26106;SDS011;13866;50.748;12.630;2022-12-18T06:44:11;6.03;;;5.83;;
26106;SDS011;13866;50.748;12.630;2022-12-18T06:46:37;5.63;;;5.17;;
26106;SDS011;13866;50.748;12.630;2022-12-18T06:49:03;4.73;;;4.57;;
26106;SDS011;13866;50.748;12.630;2022-12-18T06:51:28;8.03;;;7.40;;
26106;SDS011;13866;50.748;12.630;2022-12-18T06:53:54;6.40;;;5.90;;
26106;SDS011;13866;50.748;12.630;2022-12-18T06:56:19;14.20;;;8.87;;
26106;SDS011;13866;50.748;12.630;2022-12-18T06:58:45;20.03;;;14.70;;
26106;SDS011;13866;50.748;12.630;2022-12-18T07:01:11;10.10;;;9.20;;
26106;SDS011;13866;50.748;12.630;2022-12-18T07:03:38;15.05;;;11.85;;
26106;SDS011;13866;50.748;12.630;2022-12-18T07:06:04;6.43;;;6.07;;
26106;SDS011;13866;50.748;12.630;2022-12-18T07:08:31;6.38;;;6.18;;
26106;SDS011;13866;50.748;12.630;2022-12-18T07:10:57;7.75;;;7.10;;
26106;SDS011;13866;50.748;12.630;2022-12-18T07:13:23;7.30;;;6.87;;
26106;SDS011;13866;50.748;12.630;2022-12-18T07:15:48;6.40;;;6.10;;
26106;SDS011;13866;50.748;12.630;2022-12-18T07:18:14;8.00;;;7.60;;
26106;SDS011;13866;50.748;12.630;2022-12-18T07:20:40;6.90;;;6.40;;
26106;SDS011;13866;50.748;12.630;2022-12-18T07:23:05;6.47;;;6.27;;
26106;SDS011;13866;50.748;12.630;2022-12-18T07:25:35;6.50;;;6.30;;
26106;SDS011;13866;50.748;12.630;2022-12-18T07:28:01;6.80;;;6.35;;
26106;SDS011;13866;50.748;12.630;2022-12-18T07:30:27;5.70;;;5.40;;
26106;SDS011;13866;50.748;12.630;2022-12-18T07:32:53;5.83;;;5.30;;
26106;SDS011;13866;50.748;12.630;2022-12-18T07:35:18;6.47;;;6.37;;
26106;SDS011;13866;50.748;12.630;2022-12-18T07:37:44;6.03;;;5.83;;
26106;SDS011;13866;50.748;12.630;2022-12-18T07:40:09;5.90;;;5.70;;
26106;SDS011;13866;50.748;12.630;2022-12-18T07:42:36;4.15;;;4.07;;
26106;SDS011;13866;50.748;12.630;2022-12-18T07:45:02;5.10;;;5.10;;
26106;SDS011;13866;50.748;12.630;2022-12-18T07:47:28;4.18;;;4.18;;
26106;SDS011;13866;50.748;12.630;2022-12-18T07:49:54;4.83;;;4.73;;
26106;SDS011;13866;50.748;12.630;2022-12-18T07:52:20;4.97;;;4.77;;
26106;SDS011;13866;50.748;12.630;2022-12-18T07:54:46;5.60;;;5.50;;
26106;SDS011;13866;50.748;12.630;2022-12-18T07:57:13;6.13;;;5.93;;
26106;SDS011;13866;50.748;12.630;2022-12-18T07:59:39;5.73;;;5.40;;
26106;SDS011;13866;50.748;12.630;2022-12-18T08:02:04;5.77;;;5.67;;
26106;SDS011;13866;50.748;12.630;2022-12-18T08:04:30;5.30;;;5.20;;
26106;SDS011;13866;50.748;12.630;2022-12-18T08:06:56;4.30;;;4.20;;
26106;SDS011;13866;50.748;12.630;2022-12-18T08:09:21;5.33;;;5.23;;
26106;SDS011;13866;50.748;12.630;2022-12-18T08:11:47;5.07;;;4.97;;
26106;SDS011;13866;50.748;12.630;2022-12-18T08:14:12;5.90;;;5.70;;
26106;SDS011;13866;50.748;12.630;2022-12-18T08:16:39;7.88;;;7.43;;
26106;SDS011;13866;50.748;12.630;2022-12-18T08:19:05;8.17;;;7.90;;
26106;SDS011;13866;50.748;12.630;2022-12-18T08:21:30;9.33;;;8.80;;
26106;SDS011;13866;50.748;12.630;2022-12-18T08:23:58;9.25;;;8.98;;
26106;SDS011;13866;50.748;12.630;2022-12-18T08:26:26;12.63;;;11.82;;
26106;SDS011;13866;50.748;12.630;2022-12-18T08:28:53;13.60;;;12.52;;
26106;SDS011;13866;50.748;12.630;2022-12-18T08:31:21;15.77;;;14.13;;
26106;SDS011;13866;50.748;12.630;2022-12-18T08:33:51;17.25;;;14.52;;
26106;SDS011;13866;50.748;12.630;2022-12-18T08:36:18;17.25;;;15.45;;
26106;SDS011;13866;50.748;12.630;2022-12-18T08:38:44;13.95;;;12.13;;
26106;SDS011;13866;50.748;12.630;2022-12-18T08:41:11;17.02;;;14.50;;
26106;SDS011;13866;50.748;12.630;2022-12-18T08:43:38;16.30;;;14.52;;
26106;SDS011;13866;50.748;12.630;2022-12-18T08:46:23;17.83;;;15.73;;
26106;SDS011;13866;50.748;12.630;2022-12-18T08:48:51;16.45;;;14.75;;
26106;SDS011;13866;50.748;12.630;2022-12-18T08:51:17;15.95;;;14.35;;
26106;SDS011;13866;50.748;12.630;2022-12-18T08:53:43;17.77;;;16.00;;
26106;SDS011;13866;50.748;12.630;2022-12-18T08:56:09;21.73;;;19.30;;
26106;SDS011;13866;50.748;12.630;2022-12-18T08:58:35;26.10;;;23.48;;
26106;SDS011;13866;50.748;12.630;2022-12-18T09:01:02;25.37;;;22.70;;
26106;SDS011;13866;50.748;12.630;2022-12-18T09:03:29;24.85;;;22.35;;
26106;SDS011;13866;50.748;12.630;2022-12-18T09:05:54;25.00;;;22.37;;
26106;SDS011;13866;50.748;12.630;2022-12-18T09:08:20;29.10;;;22.67;;
26106;SDS011;13866;50.748;12.630;2022-12-18T09:10:47;27.03;;;21.00;;
26106;SDS011;13866;50.748;12.630;2022-12-18T09:13:14;27.63;;;23.05;;
26106;SDS011;13866;50.748;12.630;2022-12-18T09:15:44;29.95;;;22.70;;
26106;SDS011;13866;50.748;12.630;2022-12-18T09:18:12;25.85;;;22.85;;
26106;SDS011;13866;50.748;12.630;2022-12-18T09:20:38;26.80;;;19.88;;
26106;SDS011;13866;50.748;12.630;2022-12-18T09:23:04;35.03;;;22.37;;
26106;SDS011;13866;50.748;12.630;2022-12-18T09:25:30;29.27;;;24.02;;
26106;SDS011;13866;50.748;12.630;2022-12-18T09:27:58;35.88;;;23.42;;
26106;SDS011;13866;50.748;12.630;2022-12-18T09:30:24;47.38;;;24.95;;
26106;SDS011;13866;50.748;12.630;2022-12-18T09:32:49;41.93;;;28.40;;
26106;SDS011;13866;50.748;12.630;2022-12-18T09:35:15;35.17;;;26.70;;
26106;SDS011;13866;50.748;12.630;2022-12-18T09:37:40;39.37;;;27.60;;
26106;SDS011;13866;50.748;12.630;2022-12-18T09:40:16;39.80;;;27.02;;
26106;SDS011;13866;50.748;12.630;2022-12-18T09:42:45;35.30;;;25.70;;
26106;SDS011;13866;50.748;12.630;2022-12-18T09:45:19;32.30;;;24.48;;
26106;SDS011;13866;50.748;12.630;2022-12-18T09:47:45;35.65;;;25.02;;
26106;SDS011;13866;50.748;12.630;2022-12-18T09:50:30;39.15;;;26.58;;
26106;SDS011;13866;50.748;12.630;2022-12-18T09:52:59;45.78;;;28.35;;
26106;SDS011;13866;50.748;12.630;2022-12-18T09:55:34;38.53;;;28.77;;
26106;SDS011;13866;50.748;12.630;2022-12-18T09:58:06;42.42;;;29.85;;
26106;SDS011;13866;50.748;12.630;2022-12-18T10:00:57;52.22;;;31.00;;
26106;SDS011;13866;50.748;12.630;2022-12-18T10:03:22;56.83;;;34.00;;
26106;SDS011;13866;50.748;12.630;2022-12-18T10:06:01;60.03;;;40.50;;
26106;SDS011;13866;50.748;12.630;2022-12-18T10:08:41;64.63;;;41.53;;
26106;SDS011;13866;50.748;12.630;2022-12-18T10:13:58;55.17;;;38.88;;
26106;SDS011;13866;50.748;12.630;2022-12-18T10:17:17;48.15;;;34.60;;
26106;SDS011;13866;50.748;12.630;2022-12-18T10:25:17;44.05;;;31.73;;
26106;SDS011;13866;50.748;12.630;2022-12-18T10:27:47;54.58;;;34.47;;
26106;SDS011;13866;50.748;12.630;2022-12-18T10:30:17;42.70;;;32.08;;
26106;SDS011;13866;50.748;12.630;2022-12-18T10:32:45;48.88;;;30.48;;
26106;SDS011;13866;50.748;12.630;2022-12-18T10:35:18;42.27;;;31.23;;
26106;SDS011;13866;50.748;12.630;2022-12-18T10:38:03;43.35;;;31.95;;
26106;SDS011;13866;50.748;12.630;2022-12-18T10:40:50;44.80;;;30.98;;
26106;SDS011;13866;50.748;12.630;2022-12-18T10:43:19;39.78;;;30.65;;
26106;SDS011;13866;50.748;12.630;2022-12-18T10:45:58;37.25;;;30.33;;
26106;SDS011;13866;50.748;12.630;2022-12-18T10:48:24;46.08;;;30.50;;
26106;SDS011;13866;50.748;12.630;2022-12-18T10:50:50;39.57;;;28.87;;
26106;SDS011;13866;50.748;12.630;2022-12-18T10:53:19;42.58;;;29.80;;
26106;SDS011;13866;50.748;12.630;2022-12-18T10:55:56;36.58;;;25.80;;
26106;SDS011;13866;50.748;12.630;2022-12-18T10:58:29;35.83;;;27.48;;
26106;SDS011;13866;50.748;12.630;2022-12-18T11:03:40;28.00;;;22.90;;
26106;SDS011;13866;50.748;12.630;2022-12-18T11:08:42;31.88;;;24.55;;
26106;SDS011;13866;50.748;12.630;2022-12-18T11:11:18;28.70;;;22.27;;
26106;SDS011;13866;50.748;12.630;2022-12-18T11:13:58;24.85;;;20.65;;
26106;SDS011;13866;50.748;12.630;2022-12-18T11:16:46;23.90;;;21.30;;
26106;SDS011;13866;50.748;12.630;2022-12-18T11:19:21;25.88;;;21.20;;
26106;SDS011;13866;50.748;12.630;2022-12-18T11:22:00;27.33;;;21.23;;
26106;SDS011;13866;50.748;12.630;2022-12-18T11:26:57;21.85;;;18.60;;
26106;SDS011;13866;50.748;12.630;2022-12-18T11:29:30;23.33;;;19.85;;
26106;SDS011;13866;50.748;12.630;2022-12-18T11:34:50;29.67;;;23.58;;
26106;SDS011;13866;50.748;12.630;2022-12-18T11:37:22;34.72;;;23.25;;
26106;SDS011;13866;50.748;12.630;2022-12-18T11:39:59;33.77;;;24.37;;
26106;SDS011;13866;50.748;12.630;2022-12-18T11:42:41;33.90;;;25.52;;
26106;SDS011;13866;50.748;12.630;2022-12-18T11:50:32;37.55;;;24.17;;
26106;SDS011;13866;50.748;12.630;2022-12-18T11:53:12;39.28;;;22.15;;
26106;SDS011;13866;50.748;12.630;2022-12-18T11:55:49;24.23;;;20.10;;
26106;SDS011;13866;50.748;12.630;2022-12-18T12:01:15;22.92;;;17.67;;
26106;SDS011;13866;50.748;12.630;2022-12-18T12:04:15;22.38;;;17.27;;
26106;SDS011;13866;50.748;12.630;2022-12-18T12:09:46;19.55;;;17.55;;
26106;SDS011;13866;50.748;12.630;2022-12-18T12:12:30;18.00;;;16.02;;
26106;SDS011;13866;50.748;12.630;2022-12-18T12:20:33;16.50;;;14.88;;
26106;SDS011;13866;50.748;12.630;2022-12-18T12:26:21;17.70;;;15.80;;
26106;SDS011;13866;50.748;12.630;2022-12-18T12:32:20;26.52;;;18.95;;
26106;SDS011;13866;50.748;12.630;2022-12-18T12:40:23;17.05;;;15.38;;
26106;SDS011;13866;50.748;12.630;2022-12-18T12:42:55;19.48;;;16.50;;
26106;SDS011;13866;50.748;12.630;2022-12-18T12:45:42;20.85;;;16.08;;
26106;SDS011;13866;50.748;12.630;2022-12-18T12:48:16;23.00;;;17.38;;
26106;SDS011;13866;50.748;12.630;2022-12-18T12:50:52;22.10;;;17.30;;
26106;SDS011;13866;50.748;12.630;2022-12-18T12:53:24;21.77;;;18.75;;
26106;SDS011;13866;50.748;12.630;2022-12-18T12:55:55;19.95;;;17.83;;
26106;SDS011;13866;50.748;12.630;2022-12-18T13:01:20;30.13;;;21.15;;
26106;SDS011;13866;50.748;12.630;2022-12-18T13:07:20;28.33;;;19.70;;
26106;SDS011;13866;50.748;12.630;2022-12-18T13:12:53;26.75;;;17.15;;
26106;SDS011;13866;50.748;12.630;2022-12-18T13:15:25;23.52;;;19.13;;
26106;SDS011;13866;50.748;12.630;2022-12-18T13:20:37;20.65;;;16.27;;
26106;SDS011;13866;50.748;12.630;2022-12-18T13:25:48;21.48;;;18.17;;
26106;SDS011;13866;50.748;12.630;2022-12-18T13:28:15;24.98;;;18.10;;
26106;SDS011;13866;50.748;12.630;2022-12-18T13:36:29;18.60;;;16.67;;
26106;SDS011;13866;50.748;12.630;2022-12-18T13:41:49;21.17;;;16.63;;
26106;SDS011;13866;50.748;12.630;2022-12-18T13:44:58;23.75;;;16.90;;
26106;SDS011;13866;50.748;12.630;2022-12-18T13:47:25;20.10;;;17.57;;
26106;SDS011;13866;50.748;12.630;2022-12-18T13:49:58;18.17;;;16.17;;
26106;SDS011;13866;50.748;12.630;2022-12-18T13:52:26;18.67;;;16.77;;
26106;SDS011;13866;50.748;12.630;2022-12-18T13:55:01;17.83;;;15.90;;
26106;SDS011;13866;50.748;12.630;2022-12-18T13:57:31;22.00;;;15.98;;
26106;SDS011;13866;50.748;12.630;2022-12-18T13:59:57;16.80;;;15.18;;
26106;SDS011;13866;50.748;12.630;2022-12-18T14:02:25;21.88;;;14.77;;
26106;SDS011;13866;50.748;12.630;2022-12-18T14:04:52;15.93;;;14.32;;
26106;SDS011;13866;50.748;12.630;2022-12-18T14:07:25;19.27;;;16.85;;
26106;SDS011;13866;50.748;12.630;2022-12-18T14:09:56;17.65;;;15.85;;
26106;SDS011;13866;50.748;12.630;2022-12-18T14:12:26;18.48;;;16.40;;
26106;SDS011;13866;50.748;12.630;2022-12-18T14:15:19;35.35;;;23.25;;
26106;SDS011;13866;50.748;12.630;2022-12-18T14:17:57;30.02;;;20.75;;
26106;SDS011;13866;50.748;12.630;2022-12-18T14:20:26;31.95;;;21.42;;
26106;SDS011;13866;50.748;12.630;2022-12-18T14:22:53;29.13;;;21.98;;
26106;SDS011;13866;50.748;12.630;2022-12-18T14:25:21;32.40;;;23.35;;
26106;SDS011;13866;50.748;12.630;2022-12-18T14:28:28;33.15;;;23.23;;
26106;SDS011;13866;50.748;12.630;2022-12-18T14:30:47;23.35;;;19.23;;
26106;SDS011;13866;50.748;12.630;2022-12-18T14:33:17;22.38;;;19.67;;
26106;SDS011;13866;50.748;12.630;2022-12-18T14:35:56;35.20;;;25.58;;
26106;SDS011;13866;50.748;12.630;2022-12-18T14:40:57;26.42;;;19.75;;
26106;SDS011;13866;50.748;12.630;2022-12-18T14:43:24;26.67;;;21.95;;
26106;SDS011;13866;50.748;12.630;2022-12-18T14:45:51;18.58;;;16.85;;
26106;SDS011;13866;50.748;12.630;2022-12-18T14:51:03;25.40;;;19.60;;
26106;SDS011;13866;50.748;12.630;2022-12-18T14:53:53;27.13;;;20.20;;
26106;SDS011;13866;50.748;12.630;2022-12-18T14:56:36;26.73;;;19.05;;
26106;SDS011;13866;50.748;12.630;2022-12-18T14:59:19;22.58;;;18.92;;
26106;SDS011;13866;50.748;12.630;2022-12-18T15:04:37;26.45;;;20.10;;
26106;SDS011;13866;50.748;12.630;2022-12-18T15:07:12;41.28;;;24.08;;
26106;SDS011;13866;50.748;12.630;2022-12-18T15:09:47;39.80;;;26.33;;
26106;SDS011;13866;50.748;12.630;2022-12-18T15:12:41;38.40;;;24.05;;
26106;SDS011;13866;50.748;12.630;2022-12-18T15:18:05;37.88;;;26.52;;
26106;SDS011;13866;50.748;12.630;2022-12-18T15:20:55;31.80;;;19.83;;
26106;SDS011;13866;50.748;12.630;2022-12-18T15:23:36;26.92;;;18.90;;
26106;SDS011;13866;50.748;12.630;2022-12-18T15:26:09;25.95;;;17.90;;
26106;SDS011;13866;50.748;12.630;2022-12-18T15:28:55;17.88;;;15.98;;
26106;SDS011;13866;50.748;12.630;2022-12-18T15:31:30;27.25;;;18.98;;
26106;SDS011;13866;50.748;12.630;2022-12-18T15:34:13;27.00;;;19.23;;
26106;SDS011;13866;50.748;12.630;2022-12-18T15:36:44;24.60;;;20.48;;
26106;SDS011;13866;50.748;12.630;2022-12-18T15:39:11;29.00;;;21.67;;
26106;SDS011;13866;50.748;12.630;2022-12-18T15:41:37;27.00;;;19.67;;
26106;SDS011;13866;50.748;12.630;2022-12-18T15:44:15;47.90;;;31.80;;
26106;SDS011;13866;50.748;12.630;2022-12-18T15:46:48;28.05;;;17.33;;
26106;SDS011;13866;50.748;12.630;2022-12-18T15:49:13;23.73;;;19.63;;
26106;SDS011;13866;50.748;12.630;2022-12-18T15:51:39;27.20;;;21.93;;
26106;SDS011;13866;50.748;12.630;2022-12-18T15:54:05;26.60;;;19.03;;
26106;SDS011;13866;50.748;12.630;2022-12-18T15:56:36;42.03;;;28.08;;
26106;SDS011;13866;50.748;12.630;2022-12-18T15:59:20;52.45;;;31.27;;
26106;SDS011;13866;50.748;12.630;2022-12-18T16:01:47;71.50;;;38.87;;
26106;SDS011;13866;50.748;12.630;2022-12-18T16:04:14;171.20;;;71.65;;
26106;SDS011;13866;50.748;12.630;2022-12-18T16:06:41;263.90;;;93.15;;
26106;SDS011;13866;50.748;12.630;2022-12-18T16:09:07;226.70;;;87.90;;
26106;SDS011;13866;50.748;12.630;2022-12-18T16:11:33;130.63;;;59.47;;
26106;SDS011;13866;50.748;12.630;2022-12-18T16:14:04;82.90;;;37.22;;
26106;SDS011;13866;50.748;12.630;2022-12-18T16:16:46;165.07;;;68.82;;
26106;SDS011;13866;50.748;12.630;2022-12-18T16:19:13;154.85;;;64.43;;
26106;SDS011;13866;50.748;12.630;2022-12-18T16:21:39;83.93;;;40.13;;
26106;SDS011;13866;50.748;12.630;2022-12-18T16:24:05;36.07;;;23.77;;
26106;SDS011;13866;50.748;12.630;2022-12-18T16:26:34;59.67;;;30.15;;
26106;SDS011;13866;50.748;12.630;2022-12-18T16:28:59;46.50;;;28.27;;
26106;SDS011;13866;50.748;12.630;2022-12-18T16:31:25;41.60;;;25.03;;
26106;SDS011;13866;50.748;12.630;2022-12-18T16:34:09;30.40;;;22.40;;